Time;durP1;ratioP1;P1;durP2;ratioP2;P2;SDS_P1;SDS_P2;PMS_P1;PMS_P2;Temp;Humidity;BMP_temperature;BMP_pressure;BME280_temperature;BME280_humidity;BME280_pressure;Samples;Min_cycle;Max_cycle;Signal;HPM_P1;HPM_P2
2021/11/17 02:26:22;;;;;;;65.38;22.42;;;;;;;9.35;74.34;102032.41;5025365;28;20159;-70
2021/11/17 02:29:13;;;;;;;67.63;22.02;;;;;;;9.40;74.35;102035.16;5017503;28;20040;-72
2021/11/17 02:31:51;;;;;;;60.80;21.73;;;;;;;9.32;74.67;102027.09;4983872;28;20048;-72
2021/11/17 02:34:35;;;;;;;61.15;21.90;;;;;;;9.39;74.29;102037.72;5018181;28;20040;-70
2021/11/17 02:37:34;;;;;;;59.50;21.08;;;;;;;9.39;74.50;102038.63;5017540;28;20095;-70
2021/11/17 02:40:18;;;;;;;65.32;22.70;;;;;;;9.42;74.34;102038.72;5026103;28;20673;-71
2021/11/17 02:43:14;;;;;;;63.00;22.38;;;;;;;9.45;74.21;102043.16;5028048;28;20632;-70
2021/11/17 02:46:13;;;;;;;59.63;22.10;;;;;;;9.48;74.05;102038.94;4988652;28;20159;-73
2021/11/17 02:49:00;;;;;;;63.38;22.25;;;;;;;9.49;74.24;102035.50;5028552;28;20056;-70
2021/11/17 02:51:32;;;;;;;62.75;22.80;;;;;;;9.47;74.29;102028.47;5023879;28;21093;-70
2021/11/17 02:54:13;;;;;;;62.58;23.45;;;;;;;9.46;74.27;102030.19;5027450;28;20298;-70
2021/11/17 02:56:58;;;;;;;67.97;23.38;;;;;;;9.52;74.14;102030.41;5027970;28;20092;-70
2021/11/17 02:59:42;;;;;;;66.10;23.92;;;;;;;9.53;74.40;102031.28;5024709;28;20429;-70
2021/11/17 03:02:46;;;;;;;61.83;22.57;;;;;;;9.50;74.12;102019.06;5025271;28;20078;-70
2021/11/17 03:05:32;;;;;;;62.83;22.42;;;;;;;9.52;74.00;102017.38;5022095;28;20167;-70
2021/11/17 03:08:15;;;;;;;64.82;23.42;;;;;;;9.55;74.34;102017.50;5025149;28;20036;-70
2021/11/17 03:11:08;;;;;;;64.30;23.40;;;;;;;9.52;74.27;102013.88;5025730;28;20037;-70
2021/11/17 03:13:57;;;;;;;60.75;23.05;;;;;;;9.47;74.56;102007.63;5024569;28;20043;-72
2021/11/17 03:16:38;;;;;;;63.42;23.05;;;;;;;9.46;74.33;102008.47;5026861;28;20041;-70
2021/11/17 03:19:38;;;;;;;63.25;23.95;;;;;;;9.41;75.14;102012.63;5007867;28;20305;-70
2021/11/17 03:22:22;;;;;;;64.13;22.98;;;;;;;9.48;74.70;102012.03;5020747;28;20091;-70
2021/11/17 03:25:09;;;;;;;67.57;21.90;;;;;;;9.50;74.67;102008.66;5022557;28;20502;-71
2021/11/17 03:27:45;;;;;;;66.07;23.60;;;;;;;9.49;74.47;101999.06;5023906;28;20881;-69
2021/11/17 03:30:36;;;;;;;64.43;22.25;;;;;;;9.50;74.29;101990.44;5030421;28;20062;-70
2021/11/17 03:33:26;;;;;;;63.05;23.27;;;;;;;9.52;74.19;101993.06;5006528;28;20067;-70
2021/11/17 03:36:14;;;;;;;64.43;22.67;;;;;;;9.49;74.46;101983.44;5026021;28;20465;-70
2021/11/17 03:39:08;;;;;;;60.25;22.40;;;;;;;9.50;74.30;101976.53;5023065;28;20063;-70
2021/11/17 03:42:04;;;;;;;59.77;22.13;;;;;;;9.44;74.58;101979.81;5023983;28;20041;-71
2021/11/17 03:44:52;;;;;;;64.10;22.70;;;;;;;9.48;74.68;101976.47;5010768;28;20053;-71
2021/11/17 03:47:36;;;;;;;71.10;23.15;;;;;;;9.43;75.19;101979.75;5000531;28;20049;-70
2021/11/17 03:50:04;;;;;;;62.40;22.45;;;;;;;9.47;75.26;101977.28;5005995;28;20045;-71
2021/11/17 03:52:52;;;;;;;63.70;23.02;;;;;;;9.50;75.32;101977.41;5004612;28;20103;-71
2021/11/17 03:55:21;;;;;;;57.85;22.25;;;;;;;9.49;75.23;101975.63;4991828;28;20048;-70
2021/11/17 03:57:49;;;;;;;65.05;22.90;;;;;;;9.52;74.88;101977.44;5006279;28;20112;-70
2021/11/17 04:00:59;;;;;;;62.85;23.25;;;;;;;9.48;74.42;101971.25;5004920;28;20043;-71
2021/11/17 04:03:43;;;;;;;60.45;22.13;;;;;;;9.41;74.50;101968.38;4991869;28;20048;-71
2021/11/17 04:06:25;;;;;;;61.92;22.20;;;;;;;9.40;75.01;101971.81;5003397;28;20047;-70
2021/11/17 04:09:14;;;;;;;63.28;23.02;;;;;;;9.35;75.58;101967.34;4985792;28;20052;-70
2021/11/17 04:11:52;;;;;;;64.60;23.33;;;;;;;9.43;75.53;101975.41;5006493;28;20404;-70
2021/11/17 04:14:40;;;;;;;73.25;24.30;;;;;;;9.50;75.75;101971.31;5008776;28;20513;-70
2021/11/17 04:17:35;;;;;;;63.92;22.98;;;;;;;9.60;75.68;101976.00;4993589;28;20041;-70
2021/11/17 04:20:16;;;;;;;62.13;24.10;;;;;;;9.62;75.51;101969.16;5013133;28;20041;-70
2021/11/17 04:23:17;;;;;;;71.47;25.00;;;;;;;9.60;75.77;101963.88;5002045;28;20044;-70
2021/11/17 04:26:20;;;;;;;68.25;24.00;;;;;;;9.65;75.14;101954.50;4943551;28;20082;-70
2021/11/17 04:29:00;;;;;;;70.90;24.85;;;;;;;9.72;74.91;101959.09;5001035;28;20045;-71
2021/11/17 04:31:46;;;;;;;66.82;24.13;;;;;;;9.78;75.36;101959.28;5006197;28;20033;-71
2021/11/17 04:34:32;;;;;;;71.85;25.25;;;;;;;9.76;75.04;101960.06;5002120;28;20051;-70
2021/11/17 04:37:07;;;;;;;75.00;24.98;;;;;;;9.77;75.39;101967.03;5002854;28;20037;-72
2021/11/17 04:40:05;;;;;;;70.47;24.80;;;;;;;9.85;75.08;101972.53;4991158;28;20045;-72
2021/11/17 04:42:30;;;;;;;74.50;25.63;;;;;;;9.84;75.28;101981.16;4982212;28;20049;-71
2021/11/17 04:45:20;;;;;;;68.50;24.77;;;;;;;9.92;75.05;101975.41;4998110;28;20052;-70
2021/11/17 04:48:13;;;;;;;69.07;24.75;;;;;;;9.92;75.22;101975.41;5006826;28;20607;-70
2021/11/17 04:50:55;;;;;;;73.70;25.42;;;;;;;9.93;74.77;101971.97;5004016;28;20274;-70
2021/11/17 04:53:36;;;;;;;74.10;26.33;;;;;;;9.91;75.19;101968.41;5016701;28;20102;-70
2021/11/17 04:56:17;;;;;;;78.90;26.25;;;;;;;9.97;75.03;101966.00;4991361;28;20041;-72
2021/11/17 04:59:01;;;;;;;73.07;26.52;;;;;;;10.02;74.91;101977.47;5007231;28;20191;-70
2021/11/17 05:01:40;;;;;;;71.13;26.42;;;;;;;10.01;74.98;101972.19;5015020;28;20144;-71
2021/11/17 05:04:08;;;;;;;75.60;26.20;;;;;;;10.01;75.17;101975.69;5005962;28;20140;-72
2021/11/17 05:07:00;;;;;;;73.72;26.58;;;;;;;10.04;75.03;101982.72;5010009;28;20124;-73
2021/11/17 05:09:40;;;;;;;69.97;25.90;;;;;;;10.10;74.90;101978.59;5001312;28;21345;-70
2021/11/17 05:12:37;;;;;;;69.25;25.92;;;;;;;10.06;75.09;101970.66;5014561;28;20130;-71
2021/11/17 05:15:29;;;;;;;71.40;26.00;;;;;;;10.09;74.97;101970.72;4981238;28;20257;-71
2021/11/17 05:18:14;;;;;;;70.13;24.98;;;;;;;10.10;75.14;101957.75;5012702;28;20609;-71
2021/11/17 05:20:58;;;;;;;68.78;25.33;;;;;;;10.10;75.34;101970.78;5009418;28;20052;-70
2021/11/17 05:23:26;;;;;;;72.80;25.90;;;;;;;10.14;75.08;101972.66;5004556;28;20048;-70
2021/11/17 05:26:10;;;;;;;70.32;25.08;;;;;;;10.14;75.11;101980.47;5013931;28;20102;-70
2021/11/17 05:29:16;;;;;;;62.97;23.75;;;;;;;10.20;75.12;101973.72;5007210;28;20175;-71
2021/11/17 05:32:05;;;;;;;64.18;24.67;;;;;;;10.18;74.81;101978.91;5006116;28;20126;-71
2021/11/17 05:34:49;;;;;;;64.53;24.40;;;;;;;10.24;75.03;101976.50;5006861;28;20077;-71
2021/11/17 05:37:32;;;;;;;64.32;24.65;;;;;;;10.25;75.22;101982.56;5011824;28;20043;-70
2021/11/17 05:40:11;;;;;;;70.03;25.50;;;;;;;10.25;75.13;101973.03;5008690;28;20049;-70
2021/11/17 05:43:01;;;;;;;69.85;25.45;;;;;;;10.32;75.01;101971.50;5000896;28;20472;-72
2021/11/17 05:45:45;;;;;;;69.10;25.55;;;;;;;10.30;75.66;101981.91;4993819;28;20123;-70
2021/11/17 05:48:41;;;;;;;69.80;25.58;;;;;;;10.30;75.16;101978.41;5004834;28;20136;-70
2021/11/17 05:51:15;;;;;;;70.30;24.08;;;;;;;10.33;75.59;101976.75;4985747;28;20045;-70
2021/11/17 05:53:47;;;;;;;66.35;24.92;;;;;;;10.36;75.91;101987.31;5007478;28;20045;-71
2021/11/17 05:56:16;;;;;;;72.07;25.20;;;;;;;10.39;75.59;101984.78;5010308;28;20044;-70
2021/11/17 05:59:03;;;;;;;72.45;25.35;;;;;;;10.40;75.71;101980.47;5009864;28;20048;-70
2021/11/17 06:01:43;;;;;;;67.18;24.55;;;;;;;10.39;75.79;101979.56;4999615;28;20095;-71
2021/11/17 06:04:10;;;;;;;68.25;24.80;;;;;;;10.42;75.73;101979.69;4983056;28;20889;-71
2021/11/17 06:06:37;;;;;;;70.03;24.73;;;;;;;10.44;75.85;101977.97;5002719;28;20045;-71
2021/11/17 06:09:05;;;;;;;69.07;24.50;;;;;;;10.38;75.79;101976.91;4995123;28;20432;-71
2021/11/17 06:11:53;;;;;;;72.45;26.05;;;;;;;10.35;76.23;101974.22;5008190;28;20513;-71
2021/11/17 06:14:27;;;;;;;71.53;24.92;;;;;;;10.30;76.09;101983.63;4993877;28;20029;-70
2021/11/17 06:16:55;;;;;;;72.82;24.63;;;;;;;10.37;76.22;101975.16;4998313;28;20484;-71
2021/11/17 06:19:23;;;;;;;73.32;24.38;;;;;;;10.34;76.61;101981.16;5006145;28;20063;-70
2021/11/17 06:21:50;;;;;;;73.05;23.83;;;;;;;10.41;76.10;101970.09;4996537;28;20075;-70
2021/11/17 06:24:17;;;;;;;74.13;24.83;;;;;;;10.44;76.39;101974.50;4990045;28;20382;-73
2021/11/17 06:26:44;;;;;;;79.10;25.20;;;;;;;10.44;76.32;101966.66;5007398;28;20091;-70
2021/11/17 06:29:14;;;;;;;73.60;25.05;;;;;;;10.44;76.44;101980.59;4982854;28;20492;-70
2021/11/17 06:31:40;;;;;;;75.22;25.25;;;;;;;10.47;76.76;101980.72;4987760;28;20056;-70
2021/11/17 06:34:29;;;;;;;80.82;26.73;;;;;;;10.47;76.97;101985.91;5014305;28;20075;-70
2021/11/17 06:36:55;;;;;;;74.22;25.08;;;;;;;10.54;76.46;101987.88;4982807;28;20043;-71
2021/11/17 06:39:22;;;;;;;79.07;24.77;;;;;;;10.56;76.89;101980.97;4992390;28;20048;-70
2021/11/17 06:41:47;;;;;;;78.65;24.85;;;;;;;10.60;76.97;101988.91;4999390;28;20037;-71
2021/11/17 06:44:13;;;;;;;82.78;24.98;;;;;;;10.64;76.92;101995.97;5011498;28;20431;-71
2021/11/17 06:46:38;;;;;;;90.32;25.88;;;;;;;10.66;76.50;101991.69;4987082;28;20037;-71
2021/11/17 06:49:04;;;;;;;75.68;25.20;;;;;;;10.66;76.76;101987.38;4999494;28;20057;-71
2021/11/17 06:51:29;;;;;;;83.55;25.25;;;;;;;10.69;76.50;101991.78;5010955;28;20144;-71
2021/11/17 06:53:55;;;;;;;78.57;25.08;;;;;;;10.67;76.91;102002.19;5004903;28;20103;-71
2021/11/17 06:56:21;;;;;;;73.88;24.08;;;;;;;10.67;77.29;102002.19;5007515;28;20045;-73
2021/11/17 06:58:46;;;;;;;78.15;24.58;;;;;;;10.69;77.48;102003.09;4980381;28;20044;-71
2021/11/17 07:01:12;;;;;;;79.53;24.48;;;;;;;10.75;77.00;102011.13;5002173;28;20036;-71
2021/11/17 07:03:37;;;;;;;76.68;24.02;;;;;;;10.78;77.61;102016.44;5009338;28;20535;-72
2021/11/17 07:06:03;;;;;;;75.28;24.17;;;;;;;10.81;76.90;102011.31;5008355;28;20429;-74
2021/11/17 07:08:28;;;;;;;78.32;24.13;;;;;;;10.88;76.98;102025.41;5009297;28;20682;-72
2021/11/17 07:10:54;;;;;;;75.78;23.08;;;;;;;10.87;76.75;102028.84;4990857;28;20602;-72
2021/11/17 07:13:19;;;;;;;73.97;23.55;;;;;;;10.89;77.04;102028.09;4990163;28;20098;-72
2021/11/17 07:15:45;;;;;;;74.88;23.38;;;;;;;10.85;76.93;102028.84;4982313;28;20689;-72
2021/11/17 07:18:10;;;;;;;77.30;23.65;;;;;;;10.87;77.22;102023.63;5003239;28;20918;-72
2021/11/17 07:20:36;;;;;;;78.22;24.48;;;;;;;10.90;76.96;102022.03;4985493;28;20041;-72
2021/11/17 07:23:03;;;;;;;80.82;24.05;;;;;;;10.85;77.36;102023.63;4998133;28;20500;-72
2021/11/17 07:25:28;;;;;;;78.78;24.23;;;;;;;10.86;77.17;102032.31;4988143;28;20060;-73
2021/11/17 07:27:56;;;;;;;73.75;22.85;;;;;;;10.92;77.24;102027.28;5000829;28;20487;-73
2021/11/17 07:30:24;;;;;;;82.25;24.05;;;;;;;10.92;77.16;102025.53;4989796;28;20041;-73
2021/11/17 07:32:50;;;;;;;80.22;23.75;;;;;;;10.88;77.50;102028.91;4995166;28;20576;-72
2021/11/17 07:35:17;;;;;;;75.80;24.02;;;;;;;10.97;77.25;102036.16;5008437;28;20541;-72
2021/11/17 07:37:43;;;;;;;80.65;24.10;;;;;;;10.93;77.54;102044.69;4984129;28;20060;-73
2021/11/17 07:40:10;;;;;;;84.13;24.38;;;;;;;10.99;77.39;102037.06;4989220;28;20057;-71
2021/11/17 07:42:36;;;;;;;80.05;23.67;;;;;;;11.04;77.65;102047.66;5000646;28;20508;-71
2021/11/17 07:45:03;;;;;;;83.32;24.00;;;;;;;11.09;77.36;102049.56;5010693;28;20888;-72
2021/11/17 07:47:29;;;;;;;74.90;22.75;;;;;;;11.08;77.44;102045.19;5021685;28;20037;-75
2021/11/17 07:49:55;;;;;;;84.93;23.73;;;;;;;11.12;77.35;102052.25;5027268;28;20055;-73
2021/11/17 07:52:20;;;;;;;74.70;22.60;;;;;;;11.14;77.66;102053.19;5024396;28;20040;-72
2021/11/17 07:54:46;;;;;;;83.28;23.75;;;;;;;11.14;77.41;102068.84;5008200;28;20098;-72
2021/11/17 07:57:11;;;;;;;88.70;24.48;;;;;;;11.18;77.71;102065.47;5024346;28;20692;-71
2021/11/17 07:59:37;;;;;;;90.65;23.92;;;;;;;11.27;77.49;102072.72;5019387;28;20052;-72
2021/11/17 08:02:11;;;;;;;89.22;24.85;;;;;;;11.34;77.51;102078.13;5001632;28;20079;-73
2021/11/17 08:04:38;;;;;;;90.50;24.10;;;;;;;11.43;77.48;102074.03;5008723;28;20643;-71
2021/11/17 08:07:06;;;;;;;81.85;23.52;;;;;;;11.51;77.33;102068.19;5000134;28;20638;-72
2021/11/17 08:09:32;;;;;;;79.72;24.08;;;;;;;11.53;77.60;102076.94;5011529;28;20158;-73
2021/11/17 08:11:57;;;;;;;78.05;23.80;;;;;;;11.61;77.34;102070.22;5010816;28;20064;-72
2021/11/17 08:14:23;;;;;;;80.55;23.48;;;;;;;11.62;77.07;102073.72;5029942;28;20064;-72
2021/11/17 08:16:48;;;;;;;75.13;22.80;;;;;;;11.65;77.10;102081.63;5018220;28;20787;-72
2021/11/17 08:19:14;;;;;;;80.70;23.95;;;;;;;11.62;76.92;102082.44;5028740;28;20476;-72
2021/11/17 08:21:40;;;;;;;75.72;23.13;;;;;;;11.61;77.39;102082.38;5027094;28;20422;-72
2021/11/17 08:24:05;;;;;;;76.63;22.85;;;;;;;11.62;77.02;102076.34;5031916;28;20045;-72
2021/11/17 08:26:31;;;;;;;73.97;22.90;;;;;;;11.64;77.06;102085.09;5029976;28;20037;-73
2021/11/17 08:28:56;;;;;;;77.57;24.52;;;;;;;11.62;77.29;102085.06;5007289;28;20044;-72
2021/11/17 08:31:24;;;;;;;84.35;24.38;;;;;;;11.66;77.01;102086.00;5032620;28;20064;-73
2021/11/17 08:33:50;;;;;;;85.88;25.33;;;;;;;11.67;77.12;102091.28;5025151;28;20044;-72
2021/11/17 08:36:16;;;;;;;79.38;24.00;;;;;;;11.66;77.18;102089.50;5004973;28;20938;-72
2021/11/17 08:38:43;;;;;;;80.63;24.20;;;;;;;11.75;76.88;102083.72;5023637;28;20059;-72
2021/11/17 08:41:10;;;;;;;77.75;24.35;;;;;;;11.76;77.02;102091.59;5011852;28;20533;-72
2021/11/17 08:43:37;;;;;;;76.13;23.77;;;;;;;11.71;76.96;102102.72;4996609;28;20870;-70
2021/11/17 08:46:03;;;;;;;68.80;23.02;;;;;;;11.71;77.19;102103.59;4993957;28;20060;-71
2021/11/17 08:48:31;;;;;;;82.15;24.02;;;;;;;11.72;77.12;102104.47;4986567;28;20073;-72
2021/11/17 08:50:57;;;;;;;79.40;23.60;;;;;;;11.74;76.96;102106.34;4999550;28;20096;-72
2021/11/17 08:53:25;;;;;;;77.22;22.90;;;;;;;11.76;77.45;102114.22;5010512;28;20053;-72
2021/11/17 08:55:53;;;;;;;75.05;21.90;;;;;;;11.84;77.23;102104.84;4975544;28;20118;-71
2021/11/17 08:58:19;;;;;;;71.18;22.25;;;;;;;11.91;77.32;102112.03;4993564;28;20048;-73
2021/11/17 09:00:46;;;;;;;75.50;22.83;;;;;;;12.01;77.29;102114.06;4997633;28;20041;-71
2021/11/17 09:03:12;;;;;;;75.72;22.48;;;;;;;12.10;77.51;102118.63;5006472;28;20852;-74
2021/11/17 09:05:42;;;;;;;71.07;22.90;;;;;;;12.23;77.53;102122.47;4992188;28;20048;-73
2021/11/17 09:08:08;;;;;;;70.95;22.05;;;;;;;12.31;77.13;102124.44;4999002;28;20067;-73
2021/11/17 09:10:37;;;;;;;70.63;22.20;;;;;;;12.43;77.21;102124.75;5006006;28;20040;-73
2021/11/17 09:13:03;;;;;;;65.90;21.83;;;;;;;12.56;77.37;102116.34;4998841;28;20397;-72
2021/11/17 09:15:32;;;;;;;66.30;21.17;;;;;;;12.70;77.01;102121.03;5008900;28;20047;-71
2021/11/17 09:17:58;;;;;;;62.72;21.13;;;;;;;12.85;77.02;102117.09;4997645;28;20096;-72
2021/11/17 09:20:23;;;;;;;59.67;20.27;;;;;;;12.98;76.94;102127.00;5005142;28;20306;-71
2021/11/17 09:22:50;;;;;;;58.75;20.45;;;;;;;13.17;76.75;102130.06;5002863;28;20052;-72
2021/11/17 09:25:17;;;;;;;51.85;19.55;;;;;;;13.26;76.31;102125.91;4973375;28;20025;-72
2021/11/17 09:27:42;;;;;;;47.38;18.80;;;;;;;13.39;76.08;102130.59;4998426;28;20123;-71
2021/11/17 09:30:13;;;;;;;43.95;17.58;;;;;;;13.47;75.76;102135.09;5006872;28;22123;-71
2021/11/17 09:32:39;;;;;;;39.22;16.55;;;;;;;13.55;75.49;102137.03;4975093;28;20541;-71
2021/11/17 09:35:08;;;;;;;34.90;13.48;;;;;;;13.61;75.15;102129.28;4994604;28;20056;-73
2021/11/17 09:37:33;;;;;;;31.25;12.48;;;;;;;13.68;74.76;102143.41;5002614;28;20041;-71
2021/11/17 09:39:59;;;;;;;18.17;7.93;;;;;;;13.80;74.23;102141.91;4987231;28;20041;-72
2021/11/17 09:42:25;;;;;;;17.73;6.70;;;;;;;13.87;72.99;102142.94;4990577;28;20051;-72
2021/11/17 09:44:51;;;;;;;11.57;5.20;;;;;;;13.96;72.90;102148.38;4980010;28;20041;-71
2021/11/17 09:47:23;;;;;;;13.73;4.78;;;;;;;13.96;72.22;102150.09;5003827;28;20657;-71
2021/11/17 09:50:02;;;;;;;15.82;4.50;;;;;;;13.91;71.65;102156.97;4991893;28;20495;-72
2021/11/17 09:52:41;;;;;;;14.93;4.30;;;;;;;13.85;71.86;102157.72;5007248;28;20116;-72
2021/11/17 09:55:15;;;;;;;11.18;4.00;;;;;;;13.83;71.64;102159.47;4970135;28;20061;-72
2021/11/17 09:57:46;;;;;;;11.30;3.63;;;;;;;13.67;70.64;102170.47;5000000;28;20606;-72
2021/11/17 10:00:35;;;;;;;10.52;3.60;;;;;;;13.74;70.77;102165.38;5011773;28;20056;-72
2021/11/17 10:03:15;;;;;;;10.93;3.47;;;;;;;13.76;70.93;102173.28;4979863;28;20051;-71
2021/11/17 10:12:17;;;;;;;10.25;3.60;;;;;;;13.72;71.07;102172.31;4993238;28;20448;-71
2021/11/17 10:14:53;;;;;;;11.73;3.90;;;;;;;13.58;71.11;102172.91;4992830;28;20092;-73
2021/11/17 10:17:52;;;;;;;14.32;3.42;;;;;;;13.74;70.52;102168.00;5001396;28;20489;-72
2021/11/17 10:20:30;;;;;;;13.63;2.78;;;;;;;13.86;69.14;102179.59;5000963;28;20041;-73
2021/11/17 10:23:05;;;;;;;16.90;3.70;;;;;;;13.76;68.67;102182.03;4978400;28;20037;-74
2021/11/17 10:25:39;;;;;;;;;;;;;;;13.77;68.00;102185.53;5008317;28;20111;-71
2021/11/17 10:28:04;;;;;;;15.07;3.00;;;;;;;13.79;68.57;102187.31;4997267;28;20549;-72
2021/11/17 10:30:37;;;;;;;12.10;3.10;;;;;;;13.77;69.27;102190.78;5005333;28;20086;-72
2021/11/17 10:33:13;;;;;;;22.08;3.55;;;;;;;13.71;68.41;102191.53;4996437;28;20166;-72
2021/11/17 10:35:55;;;;;;;20.13;3.28;;;;;;;13.74;68.81;102194.22;4988586;28;20505;-72
2021/11/17 10:38:39;;;;;;;21.23;3.38;;;;;;;13.62;69.28;102188.72;5006886;28;20053;-73
2021/11/17 10:41:17;;;;;;;17.60;3.17;;;;;;;13.63;67.61;102194.84;4998627;28;20106;-72
2021/11/17 10:44:12;;;;;;;19.00;3.20;;;;;;;13.58;67.00;102193.84;5014195;28;20286;-72
2021/11/17 10:46:52;;;;;;;15.18;3.03;;;;;;;13.49;67.21;102204.13;5021418;28;20079;-71
2021/11/17 10:49:23;;;;;;;17.80;3.72;;;;;;;13.46;66.22;102206.69;5004354;28;20068;-73
2021/11/17 10:51:54;;;;;;;19.85;3.13;;;;;;;13.48;66.47;102205.84;4996155;28;20041;-73
2021/11/17 10:54:22;;;;;;;17.65;2.97;;;;;;;13.50;66.81;102200.66;5008555;28;20045;-73
2021/11/17 10:57:09;;;;;;;18.42;3.15;;;;;;;13.77;65.75;102206.53;5000494;28;20077;-74
2021/11/17 10:59:36;;;;;;;19.77;3.40;;;;;;;14.00;65.65;102201.75;4986936;28;20066;-74
2021/11/17 11:02:03;;;;;;;21.13;3.25;;;;;;;14.11;64.65;102202.84;5033790;28;20051;-72
2021/11/17 11:04:37;;;;;;;17.65;3.03;;;;;;;14.10;64.38;102206.31;5019563;28;20071;-72
2021/11/17 11:07:21;;;;;;;15.82;2.80;;;;;;;14.02;62.71;102205.28;5005312;28;20437;-75
2021/11/17 11:10:09;;;;;;;16.60;2.70;;;;;;;14.08;63.62;102198.44;5022399;28;20051;-72
2021/11/17 11:12:35;;;;;;;20.85;3.30;;;;;;;14.02;62.88;102207.91;5010141;28;20036;-74
2021/11/17 11:15:00;;;;;;;15.55;2.85;;;;;;;13.98;62.20;102203.44;5020267;28;20032;-72
2021/11/17 11:17:45;;;;;;;17.98;3.33;;;;;;;13.88;61.57;102206.72;5022770;28;20551;-72
2021/11/17 11:20:16;;;;;;;;;;;;;;;13.91;62.46;102207.66;5027645;28;20409;-71
2021/11/17 11:23:04;;;;;;;14.40;2.58;;;;;;;13.86;61.74;102204.06;5035551;28;19931;-74
2021/11/17 11:25:47;;;;;;;15.27;2.78;;;;;;;13.76;61.58;102196.88;5027453;28;20059;-71
2021/11/17 11:28:21;;;;;;;18.35;3.38;;;;;;;13.77;61.88;102203.91;5045174;28;20040;-74
2021/11/17 11:31:03;;;;;;;19.52;3.53;;;;;;;13.78;62.49;102193.41;5042477;28;20660;-72
2021/11/17 11:33:36;;;;;;;14.85;3.35;;;;;;;13.67;62.92;102192.31;5024473;28;20036;-72
2021/11/17 11:36:10;;;;;;;18.17;3.13;;;;;;;13.69;63.08;102194.97;5021631;28;20044;-70
2021/11/17 11:38:36;;;;;;;;;;;;;;;13.60;62.93;102203.50;5009968;28;20086;-73
2021/11/17 11:41:17;;;;;;;13.73;3.17;;;;;;;13.70;63.19;102200.25;5018222;28;20142;-71
2021/11/17 11:43:44;;;;;;;18.27;3.30;;;;;;;13.85;63.23;102212.78;5008975;28;20044;-72
2021/11/17 11:46:26;;;;;;;20.33;3.50;;;;;;;13.87;63.55;102218.94;5021157;28;20563;-73
2021/11/17 11:49:05;;;;;;;16.25;3.40;;;;;;;13.87;63.44;102224.19;5012856;28;20044;-73
2021/11/17 11:51:39;;;;;;;12.00;3.38;;;;;;;13.80;63.64;102215.31;5018684;28;20055;-72
2021/11/17 11:54:19;;;;;;;13.95;3.58;;;;;;;13.79;63.74;102213.53;5006925;28;20075;-73
2021/11/17 11:56:48;;;;;;;14.23;3.60;;;;;;;13.88;63.74;102219.84;5013990;28;20092;-71
2021/11/17 11:59:20;;;;;;;13.77;3.30;;;;;;;13.79;63.24;102215.28;4990852;28;20037;-73
2021/11/17 12:01:46;;;;;;;13.88;3.40;;;;;;;13.74;63.78;102211.69;5029282;28;20040;-72
2021/11/17 12:04:16;;;;;;;13.25;3.60;;;;;;;13.64;64.14;102214.97;5010363;28;20504;-71
2021/11/17 12:06:54;;;;;;;13.85;3.38;;;;;;;13.54;64.19;102221.72;5016804;28;20033;-71
2021/11/17 12:09:29;;;;;;;14.55;3.40;;;;;;;13.56;64.68;102235.75;5032664;28;20041;-72
2021/11/17 12:11:59;;;;;;;19.15;3.40;;;;;;;13.53;64.28;102229.56;5023779;28;20496;-73
2021/11/17 12:14:49;;;;;;;13.13;2.83;;;;;;;13.55;64.18;102239.19;5006024;28;20047;-72
2021/11/17 12:17:23;;;;;;;17.60;3.67;;;;;;;13.53;64.54;102237.41;5024035;28;20037;-71
2021/11/17 12:19:57;;;;;;;18.92;3.53;;;;;;;13.42;64.60;102236.28;5010435;28;20101;-71
2021/11/17 12:22:44;;;;;;;19.10;3.90;;;;;;;13.54;64.62;102245.28;5027398;28;20064;-71
2021/11/17 12:25:39;;;;;;;14.43;3.47;;;;;;;13.61;64.47;102244.59;5012143;28;20063;-71
2021/11/17 12:28:15;;;;;;;;;;;;;;;13.63;64.96;102242.91;4990314;28;20772;-71
2021/11/17 12:30:49;;;;;;;14.13;3.22;;;;;;;13.75;64.38;102251.03;5006890;28;19920;-71
2021/11/17 12:33:22;;;;;;;16.35;3.42;;;;;;;13.93;63.88;102245.31;5027658;28;20517;-71
2021/11/17 12:36:06;;;;;;;15.10;3.27;;;;;;;13.87;63.21;102250.41;5029332;28;20044;-71
2021/11/17 12:38:35;;;;;;;12.30;3.30;;;;;;;13.84;63.39;102247.75;5017169;28;20390;-70
2021/11/17 12:41:19;;;;;;;24.60;3.50;;;;;;;13.79;62.88;102250.25;5005495;28;20103;-70
2021/11/17 12:43:46;;;;;;;;;;;;;;;13.93;62.13;102244.41;5021483;28;20447;-71
2021/11/17 12:46:29;;;;;;;18.98;3.22;;;;;;;13.81;62.08;102245.94;5015272;28;20408;-70
2021/11/17 12:49:16;;;;;;;18.08;3.08;;;;;;;13.74;62.91;102251.88;5006417;28;20064;-69
2021/11/17 12:52:04;;;;;;;21.80;3.60;;;;;;;13.74;62.53;102251.00;5036036;28;21261;-71
2021/11/17 12:54:44;;;;;;;17.73;3.72;;;;;;;13.73;62.86;102249.22;5007215;28;20496;-72
2021/11/17 12:57:21;;;;;;;16.00;3.25;;;;;;;13.62;62.42;102255.97;5003252;28;20062;-70
2021/11/17 12:59:59;;;;;;;19.73;3.08;;;;;;;13.67;63.20;102260.44;5022723;28;20572;-72
2021/11/17 13:02:27;;;;;;;13.80;3.00;;;;;;;13.66;62.59;102266.53;5023745;28;20033;-73
2021/11/17 13:05:19;;;;;;;17.05;3.00;;;;;;;13.64;62.64;102263.00;5017024;28;20041;-71
2021/11/17 13:07:47;;;;;;;19.48;3.70;;;;;;;13.61;62.87;102267.28;5028953;28;20044;-73
2021/11/17 13:10:34;;;;;;;17.33;3.20;;;;;;;13.54;62.08;102274.13;5010107;28;20450;-72
2021/11/17 13:13:26;;;;;;;15.23;2.95;;;;;;;13.32;62.89;102272.72;4991772;28;20097;-70
2021/11/17 13:15:51;;;;;;;16.08;3.10;;;;;;;13.22;62.44;102281.22;5011160;28;20458;-71
2021/11/17 13:18:30;;;;;;;16.52;3.33;;;;;;;13.08;62.46;102279.94;5027556;28;20131;-70
2021/11/17 13:21:27;;;;;;;16.25;3.20;;;;;;;12.96;62.99;102290.97;5000205;28;20123;-71
2021/11/17 13:23:59;;;;;;;12.90;2.83;;;;;;;12.76;63.68;102291.28;5024840;28;20036;-71
2021/11/17 13:26:32;;;;;;;13.45;2.90;;;;;;;12.64;63.40;102284.00;5019336;28;20037;-70
2021/11/17 13:29:51;;;;;;;18.33;3.17;;;;;;;12.61;62.84;102278.69;5020035;28;20064;-71
2021/11/17 13:32:38;;;;;;;19.23;3.63;;;;;;;12.49;63.79;102273.13;4974493;28;20046;-71
2021/11/17 13:35:35;;;;;;;20.58;3.28;;;;;;;12.44;63.41;102272.97;4957912;28;20042;-71
2021/11/17 13:38:16;;;;;;;14.10;3.05;;;;;;;12.49;63.59;102274.00;5017896;28;20048;-71
2021/11/17 13:40:45;;;;;;;18.02;2.95;;;;;;;12.47;63.62;102274.81;5026451;28;20051;-71
2021/11/17 13:43:11;;;;;;;16.00;2.83;;;;;;;12.50;62.90;102274.91;5023886;28;20135;-71
2021/11/17 13:45:37;;;;;;;13.32;2.75;;;;;;;12.58;62.62;102274.25;5025045;28;20497;-70
2021/11/17 13:48:03;;;;;;;16.90;2.95;;;;;;;12.55;62.83;102274.19;5019055;28;20056;-71
2021/11/17 13:50:34;;;;;;;19.30;2.65;;;;;;;12.55;62.71;102281.16;5026356;28;22251;-72
2021/11/17 13:53:02;;;;;;;16.58;2.80;;;;;;;12.57;63.32;102289.91;5013777;28;20048;-72
2021/11/17 13:55:30;;;;;;;16.33;2.28;;;;;;;12.58;63.14;102273.38;5024596;28;20076;-71
2021/11/17 13:57:56;;;;;;;13.88;2.70;;;;;;;12.58;62.81;102278.59;5007475;28;20048;-72
2021/11/17 14:00:23;;;;;;;17.85;2.75;;;;;;;12.54;62.48;102281.97;5028927;28;20041;-71
2021/11/17 14:02:49;;;;;;;17.38;2.72;;;;;;;12.54;62.53;102281.97;5015745;28;20054;-71
2021/11/17 14:05:16;;;;;;;12.82;2.65;;;;;;;12.52;63.25;102288.91;5023722;28;20808;-72
2021/11/17 14:07:42;;;;;;;15.25;2.70;;;;;;;12.50;63.34;102304.53;5023993;28;20507;-72
2021/11/17 14:10:08;;;;;;;14.18;2.47;;;;;;;12.41;64.04;102298.16;5011486;28;20318;-72
2021/11/17 14:12:34;;;;;;;14.13;2.78;;;;;;;12.35;64.88;102298.00;5031071;28;20194;-72
2021/11/17 14:14:59;;;;;;;16.90;2.88;;;;;;;12.32;64.89;102303.16;5013810;28;20041;-71
2021/11/17 14:17:25;;;;;;;14.45;2.83;;;;;;;12.34;64.75;102310.19;5018981;28;20056;-71
2021/11/17 14:19:51;;;;;;;14.52;2.72;;;;;;;12.31;64.98;102298.75;5022246;28;20127;-70
2021/11/17 14:22:17;;;;;;;17.33;2.92;;;;;;;12.33;65.03;102308.41;5009142;28;20417;-70
2021/11/17 14:24:43;;;;;;;18.05;2.85;;;;;;;12.27;64.97;102303.00;5024456;28;20040;-70